Time;durP1;ratioP1;P1;durP2;ratioP2;P2;SDS_P1;SDS_P2;PMS_P1;PMS_P2;Temp;Humidity;BMP_temperature;BMP_pressure;BME280_temperature;BME280_humidity;BME280_pressure;Samples;Min_cycle;Max_cycle;Signal;HPM_P1;HPM_P2
2021/05/26 00:01:55;;;;;;;3.07;1.20;;;10.90;99.90;;;;;;5044013;28;20516;-78
2021/05/26 00:04:21;;;;;;;1.57;1.47;;;10.50;99.90;;;;;;5043634;28;20454;-80
2021/05/26 00:06:47;;;;;;;1.63;1.53;;;10.70;99.90;;;;;;5041835;28;20480;-79
2021/05/26 00:09:13;;;;;;;4.10;1.70;;;10.50;99.90;;;;;;5041508;28;20483;-79
2021/05/26 00:11:40;;;;;;;1.30;1.20;;;10.40;99.90;;;;;;5042642;28;20453;-80
2021/05/26 00:14:06;;;;;;;1.60;1.50;;;10.60;99.90;;;;;;5042337;28;20481;-79
2021/05/26 00:16:33;;;;;;;2.60;1.17;;;10.00;99.90;;;;;;5037194;28;20455;-81
2021/05/26 00:18:59;;;;;;;2.80;1.20;;;10.50;99.90;;;;;;5035859;28;20908;-81
2021/05/26 00:21:25;;;;;;;1.50;1.40;;;10.30;99.90;;;;;;5035337;28;20481;-82
2021/05/26 00:23:52;;;;;;;1.47;1.37;;;10.30;99.90;;;;;;5035852;28;20455;-81
2021/05/26 00:26:18;;;;;;;1.70;1.60;;;10.20;99.90;;;;;;5036022;28;20466;-81
2021/05/26 00:28:46;;;;;;;1.40;1.30;;;;;;;;;;5035927;28;20474;-81
2021/05/26 00:31:12;;;;;;;3.97;1.70;;;10.50;99.90;;;;;;5035668;28;20438;-82
2021/05/26 00:33:39;;;;;;;2.70;1.63;;;10.20;99.90;;;;;;5038342;28;20549;-81
2021/05/26 00:36:06;;;;;;;1.67;1.57;;;10.40;99.90;;;;;;5034911;28;20450;-81
2021/05/26 00:38:32;;;;;;;1.03;1.03;;;10.50;99.90;;;;;;5035738;28;20516;-80
2021/05/26 00:40:58;;;;;;;1.50;1.40;;;10.40;99.90;;;;;;5035357;28;20474;-81
2021/05/26 00:43:24;;;;;;;0.90;0.90;;;10.70;99.90;;;;;;5035576;28;20446;-81
2021/05/26 00:45:50;;;;;;;3.13;1.50;;;;;;;;;;5036582;28;20521;-81
2021/05/26 00:48:17;;;;;;;1.77;1.67;;;;;;;;;;5037848;28;20450;-80
2021/05/26 00:50:44;;;;;;;1.20;1.10;;;10.40;99.90;;;;;;5038246;28;20466;-81
2021/05/26 00:53:13;;;;;;;3.13;1.33;;;10.30;99.90;;;;;;5039380;28;20446;-80
2021/05/26 00:55:40;;;;;;;1.60;1.50;;;10.50;99.90;;;;;;5041341;28;20442;-80
2021/05/26 00:58:08;;;;;;;1.87;1.57;;;10.50;99.90;;;;;;5045417;28;20458;-80
2021/05/26 01:00:35;;;;;;;1.53;1.10;;;10.50;99.90;;;;;;5042139;28;21032;-82
2021/05/26 01:03:02;;;;;;;2.40;1.23;;;10.50;99.90;;;;;;5041144;28;20473;-82
2021/05/26 01:05:29;;;;;;;1.30;1.20;;;10.40;99.90;;;;;;5042726;28;20450;-82
2021/05/26 01:07:56;;;;;;;1.50;1.40;;;10.30;99.90;;;;;;5040013;28;20450;-81
2021/05/26 01:10:25;;;;;;;1.50;1.40;;;10.00;99.90;;;;;;5038572;28;20547;-81
2021/05/26 01:12:52;;;;;;;1.73;1.17;;;10.20;99.90;;;;;;5040696;28;20482;-82
2021/05/26 01:15:19;;;;;;;1.77;1.67;;;10.20;99.90;;;;;;5038616;28;20450;-82
2021/05/26 01:17:45;;;;;;;1.80;1.67;;;10.30;99.90;;;;;;5037937;28;20453;-80
2021/05/26 01:20:18;;;;;;;3.53;1.70;;;10.40;99.90;;;;;;5037587;28;20498;-81
2021/05/26 01:22:45;;;;;;;1.50;1.37;;;10.40;99.90;;;;;;5038343;28;20468;-81
2021/05/26 01:25:12;;;;;;;1.73;1.60;;;10.30;99.90;;;;;;5040726;28;20871;-80
2021/05/26 01:27:38;;;;;;;2.00;1.20;;;10.40;99.90;;;;;;5042474;28;20925;-79
2021/05/26 01:30:07;;;;;;;3.83;1.40;;;10.10;99.90;;;;;;5042088;28;20471;-80
2021/05/26 01:32:37;;;;;;;1.67;1.57;;;10.40;99.90;;;;;;5041763;28;21060;-80
2021/05/26 01:35:03;;;;;;;2.90;1.70;;;10.40;99.90;;;;;;5042298;28;20435;-80
2021/05/26 01:37:29;;;;;;;1.47;1.20;;;10.40;99.90;;;;;;5041581;28;20417;-79
2021/05/26 01:39:56;;;;;;;1.27;1.27;;;10.20;99.90;;;;;;5037684;28;20482;-81
2021/05/26 01:42:31;;;;;;;1.77;1.67;;;10.40;99.90;;;;;;5040786;28;20474;-79
2021/05/26 01:44:57;;;;;;;2.10;1.40;;;10.40;99.90;;;;;;5041764;28;20450;-80
2021/05/26 01:47:23;;;;;;;2.27;1.40;;;10.40;99.90;;;;;;5042706;28;20447;-80
2021/05/26 01:49:49;;;;;;;2.00;1.80;;;9.80;99.90;;;;;;5040831;28;20461;-80
2021/05/26 01:52:16;;;;;;;1.60;1.50;;;10.40;99.90;;;;;;5041848;28;20486;-79
2021/05/26 01:54:42;;;;;;;2.67;2.00;;;10.70;99.90;;;;;;5043762;28;20450;-79
2021/05/26 01:57:09;;;;;;;1.67;1.23;;;9.80;99.90;;;;;;5043518;28;20448;-79
2021/05/26 01:59:35;;;;;;;1.33;1.23;;;10.40;99.90;;;;;;5041525;28;20477;-79
2021/05/26 02:02:01;;;;;;;2.00;1.50;;;10.40;99.90;;;;;;5040637;28;20476;-81
2021/05/26 02:04:27;;;;;;;2.90;1.57;;;10.30;99.90;;;;;;5041560;28;20447;-80
2021/05/26 02:07:01;;;;;;;6.23;1.97;;;10.20;99.90;;;;;;5042738;28;20450;-79
2021/05/26 02:09:27;;;;;;;4.50;2.00;;;10.20;99.90;;;;;;5037033;28;20509;-80
2021/05/26 02:14:38;;;;;;;2.50;2.30;;;10.10;99.90;;;;;;5039354;28;20401;-80
2021/05/26 02:17:04;;;;;;;2.43;2.00;;;10.30;99.90;;;;;;5037517;28;20815;-80
2021/05/26 02:19:30;;;;;;;2.40;1.70;;;10.20;99.90;;;;;;5035914;28;20469;-81
2021/05/26 02:21:56;;;;;;;2.00;1.90;;;10.50;99.90;;;;;;5040079;28;20439;-79
2021/05/26 02:24:23;;;;;;;2.47;2.27;;;10.30;99.90;;;;;;5041082;28;20446;-79
2021/05/26 02:26:49;;;;;;;2.30;1.50;;;10.20;99.90;;;;;;5041953;28;20480;-78
2021/05/26 02:29:15;;;;;;;2.30;1.83;;;10.20;99.90;;;;;;5041876;28;20497;-78
2021/05/26 02:31:42;;;;;;;2.23;2.00;;;10.50;99.90;;;;;;5048463;28;20849;-80
2021/05/26 02:34:08;;;;;;;1.67;1.57;;;10.30;99.90;;;;;;5050652;28;20450;-80
2021/05/26 02:36:34;;;;;;;1.50;1.40;;;10.30;99.90;;;;;;5052149;28;20449;-80
2021/05/26 02:39:00;;;;;;;2.70;1.90;;;10.30;99.90;;;;;;5047380;28;20466;-81
2021/05/26 02:41:26;;;;;;;2.23;1.80;;;10.30;99.90;;;;;;5039820;28;20845;-81
2021/05/26 02:43:52;;;;;;;2.37;2.17;;;10.10;99.90;;;;;;5049399;28;20469;-79
2021/05/26 02:46:18;;;;;;;2.80;1.33;;;9.80;99.90;;;;;;5051041;28;20446;-79
2021/05/26 02:48:45;;;;;;;3.27;1.70;;;10.30;99.90;;;;;;5042220;28;20446;-79
2021/05/26 02:51:11;;;;;;;1.90;1.67;;;10.40;99.90;;;;;;5041045;28;20981;-79
2021/05/26 02:53:37;;;;;;;6.27;1.97;;;9.90;99.90;;;;;;5046260;28;20468;-80
2021/05/26 02:56:04;;;;;;;1.77;1.67;;;9.90;99.90;;;;;;5048782;28;20446;-80
2021/05/26 02:58:30;;;;;;;2.90;2.60;;;10.20;99.90;;;;;;5048633;28;20450;-79
2021/05/26 03:00:56;;;;;;;3.00;2.30;;;10.00;99.90;;;;;;5046855;28;20473;-79
2021/05/26 03:03:23;;;;;;;4.33;2.40;;;10.10;99.90;;;;;;5046743;28;20455;-78
2021/05/26 03:05:50;;;;;;;4.13;2.30;;;10.20;99.90;;;;;;5041365;28;20425;-79
2021/05/26 03:08:16;;;;;;;2.30;2.20;;;10.00;99.90;;;;;;5040563;28;20477;-79
2021/05/26 03:10:42;;;;;;;1.97;1.87;;;10.50;99.90;;;;;;5042479;28;21004;-78
2021/05/26 03:13:08;;;;;;;3.40;2.60;;;10.30;99.90;;;;;;5041715;28;20489;-79
2021/05/26 03:15:34;;;;;;;2.20;2.00;;;10.20;99.90;;;;;;5041856;28;20445;-81
2021/05/26 03:18:00;;;;;;;2.40;2.20;;;10.40;99.90;;;;;;5038982;28;20214;-80
2021/05/26 03:20:26;;;;;;;2.37;2.17;;;9.90;99.90;;;;;;5036675;28;20831;-82
2021/05/26 03:22:53;;;;;;;1.93;1.63;;;10.30;99.90;;;;;;5042430;28;20447;-80
2021/05/26 03:25:19;;;;;;;2.00;1.90;;;10.30;99.90;;;;;;5049683;28;20533;-80
2021/05/26 03:27:45;;;;;;;1.70;1.60;;;10.10;99.90;;;;;;5047576;28;20479;-81
2021/05/26 03:30:14;;;;;;;2.00;1.90;;;9.80;99.90;;;;;;5045299;28;20227;-81
2021/05/26 03:32:42;;;;;;;3.63;2.20;;;10.30;99.90;;;;;;5043269;28;20482;-81
2021/05/26 03:35:10;;;;;;;2.30;2.10;;;10.30;99.90;;;;;;5042574;28;20442;-81
2021/05/26 03:37:37;;;;;;;3.80;2.43;;;10.30;99.90;;;;;;5038768;28;20449;-82
2021/05/26 03:40:06;;;;;;;1.70;1.60;;;10.30;99.90;;;;;;5058932;22;20465;-76
2021/05/26 03:42:32;;;;;;;2.87;1.97;;;10.30;99.90;;;;;;5034054;28;20528;-76
2021/05/26 03:44:58;;;;;;;4.33;2.10;;;10.20;99.90;;;;;;5033569;28;20422;-76
2021/05/26 03:47:27;;;;;;;2.80;1.50;;;10.30;99.90;;;;;;5035892;28;20504;-77
2021/05/26 03:49:53;;;;;;;3.70;2.30;;;10.30;99.90;;;;;;5039336;28;20444;-77
2021/05/26 03:52:19;;;;;;;2.10;1.90;;;10.30;99.90;;;;;;5038551;28;20518;-77
2021/05/26 03:54:45;;;;;;;1.77;1.67;;;10.30;99.90;;;;;;5036496;28;20453;-77
2021/05/26 03:57:12;;;;;;;2.55;1.50;;;10.30;99.90;;;;;;5033601;28;20492;-77
2021/05/26 03:59:38;;;;;;;3.20;2.50;;;10.30;99.90;;;;;;5034799;28;20313;-77
2021/05/26 04:02:04;;;;;;;2.93;2.20;;;10.40;99.90;;;;;;5034013;28;20856;-77
2021/05/26 04:04:31;;;;;;;3.30;2.30;;;10.40;99.90;;;;;;5033893;28;20448;-77
2021/05/26 04:06:57;;;;;;;4.77;2.23;;;10.40;99.90;;;;;;5033809;28;20961;-77
2021/05/26 04:09:23;;;;;;;7.60;3.40;;;10.40;99.90;;;;;;5032924;28;20427;-77
2021/05/26 04:11:49;;;;;;;4.80;2.40;;;10.40;99.90;;;;;;5034444;28;20219;-77
2021/05/26 04:14:16;;;;;;;6.27;2.47;;;10.40;99.90;;;;;;5034092;28;20470;-77
2021/05/26 04:16:42;;;;;;;3.93;2.63;;;10.50;99.90;;;;;;5034463;28;20957;-77
2021/05/26 04:19:08;;;;;;;3.67;3.27;;;10.50;99.90;;;;;;5033484;28;20446;-77
2021/05/26 04:21:34;;;;;;;2.07;1.97;;;10.60;99.90;;;;;;5034174;28;20442;-77
2021/05/26 04:24:00;;;;;;;3.03;2.83;;;10.50;99.90;;;;;;5033512;28;20459;-77
2021/05/26 04:26:26;;;;;;;4.60;2.60;;;10.50;99.90;;;;;;5033943;28;20449;-77
2021/05/26 04:28:52;;;;;;;2.30;2.10;;;10.60;99.90;;;;;;5033925;28;20417;-77
2021/05/26 04:31:20;;;;;;;3.13;2.00;;;10.60;99.90;;;;;;5036155;28;20482;-77
2021/05/26 04:33:46;;;;;;;4.10;2.10;;;10.60;99.90;;;;;;5037643;28;20450;-77
2021/05/26 04:36:12;;;;;;;2.73;2.13;;;10.60;99.90;;;;;;5038208;28;20477;-77
2021/05/26 04:38:38;;;;;;;5.80;2.67;;;10.50;99.90;;;;;;5036730;28;20576;-77
2021/05/26 04:41:05;;;;;;;4.20;2.47;;;10.50;99.90;;;;;;5037502;28;20473;-77
2021/05/26 04:43:32;;;;;;;2.50;2.10;;;10.60;99.90;;;;;;5037279;28;20451;-77
2021/05/26 04:46:00;;;;;;;2.90;2.57;;;10.60;99.90;;;;;;5037791;28;20446;-76
2021/05/26 04:48:27;;;;;;;3.30;2.00;;;10.60;99.90;;;;;;5036563;28;20446;-77
2021/05/26 04:50:53;;;;;;;2.50;2.30;;;10.60;99.90;;;;;;5036847;28;20591;-77
2021/05/26 04:53:19;;;;;;;3.30;2.67;;;10.50;99.90;;;;;;5036729;28;20573;-77
2021/05/26 04:55:45;;;;;;;5.53;3.53;;;10.60;99.90;;;;;;5036912;28;20454;-78
2021/05/26 04:58:12;;;;;;;4.10;3.80;;;10.70;99.90;;;;;;5037383;28;20442;-77
2021/05/26 05:00:38;;;;;;;3.10;2.80;;;10.80;99.90;;;;;;5035816;28;20466;-78
2021/05/26 05:03:05;;;;;;;3.63;2.63;;;10.80;99.90;;;;;;5036031;28;20421;-77
2021/05/26 05:05:32;;;;;;;2.77;2.43;;;10.90;99.90;;;;;;5036076;28;20470;-77
2021/05/26 05:07:59;;;;;;;3.30;3.00;;;10.80;99.90;;;;;;5036012;28;20450;-77
2021/05/26 05:10:25;;;;;;;4.37;3.23;;;10.80;99.90;;;;;;5036814;28;20466;-77
2021/05/26 05:12:51;;;;;;;2.70;2.43;;;10.80;99.90;;;;;;5035869;28;20486;-77
2021/05/26 05:15:17;;;;;;;4.90;3.03;;;10.90;99.90;;;;;;5035968;28;20454;-77
2021/05/26 05:17:46;;;;;;;4.90;2.73;;;11.00;99.90;;;;;;5040658;28;20455;-76
2021/05/26 05:20:14;;;;;;;2.83;2.67;;;11.10;99.90;;;;;;5036582;28;20470;-77
2021/05/26 05:22:41;;;;;;;2.97;2.70;;;11.10;99.90;;;;;;5036950;28;20508;-76
2021/05/26 05:25:08;;;;;;;2.73;2.37;;;11.10;99.90;;;;;;5050923;28;20485;-76
2021/05/26 05:27:34;;;;;;;5.27;2.53;;;11.10;99.90;;;;;;5041906;28;20446;-75
2021/05/26 05:30:00;;;;;;;2.63;2.43;;;11.40;99.90;;;;;;5041907;28;20508;-76
2021/05/26 05:32:26;;;;;;;4.70;2.60;;;11.40;99.90;;;;;;5040749;28;20513;-76
2021/05/26 05:34:53;;;;;;;4.30;3.53;;;11.40;99.90;;;;;;5042093;28;20450;-76
2021/05/26 05:37:19;;;;;;;5.77;4.60;;;11.50;99.90;;;;;;5044596;28;20806;-76
2021/05/26 05:39:46;;;;;;;3.57;2.60;;;11.60;99.90;;;;;;5036236;28;20478;-76
2021/05/26 05:42:12;;;;;;;4.50;4.13;;;11.50;99.90;;;;;;5034827;28;20470;-76
2021/05/26 05:44:38;;;;;;;3.17;2.50;;;11.50;99.90;;;;;;5035108;28;20902;-76
2021/05/26 05:47:04;;;;;;;5.10;3.23;;;11.50;99.90;;;;;;5034823;28;20536;-76
2021/05/26 05:49:30;;;;;;;4.07;2.80;;;11.60;99.90;;;;;;5035468;28;20505;-76
2021/05/26 05:51:56;;;;;;;2.60;2.40;;;11.60;99.90;;;;;;5035362;28;20513;-76
2021/05/26 05:54:22;;;;;;;13.70;9.80;;;11.80;99.90;;;;;;5035268;28;20519;-76
2021/05/26 05:56:49;;;;;;;6.60;4.33;;;12.00;99.90;;;;;;5034953;28;20909;-76
2021/05/26 05:59:15;;;;;;;13.40;8.00;;;12.10;99.90;;;;;;5034930;28;20478;-76
2021/05/26 06:01:41;;;;;;;6.77;3.30;;;12.10;99.90;;;;;;5034974;28;20478;-76
2021/05/26 06:04:07;;;;;;;4.13;2.83;;;11.90;99.90;;;;;;5034791;28;20450;-76
2021/05/26 06:06:33;;;;;;;2.50;2.27;;;11.80;99.90;;;;;;5034943;28;20478;-76
2021/05/26 06:08:59;;;;;;;3.90;3.13;;;12.20;99.90;;;;;;5034791;28;20565;-76
2021/05/26 06:11:25;;;;;;;4.93;4.10;;;11.80;99.90;;;;;;5035746;28;20473;-76
2021/05/26 06:13:52;;;;;;;5.70;3.10;;;12.00;99.90;;;;;;5035187;28;20942;-76
2021/05/26 06:16:18;;;;;;;4.70;2.93;;;12.00;99.90;;;;;;5035495;28;20482;-77
2021/05/26 06:18:44;;;;;;;5.27;3.17;;;12.10;99.90;;;;;;5035141;28;20449;-77
2021/05/26 06:21:11;;;;;;;2.87;2.50;;;12.20;99.90;;;;;;5035105;28;20552;-77
2021/05/26 06:23:37;;;;;;;3.10;2.90;;;12.10;99.90;;;;;;5035269;28;20445;-77
2021/05/26 06:26:03;;;;;;;5.83;3.63;;;12.40;99.90;;;;;;5034991;28;20485;-77
2021/05/26 06:28:29;;;;;;;3.67;3.27;;;12.20;99.90;;;;;;5034674;28;20965;-77
2021/05/26 06:30:57;;;;;;;3.47;2.77;;;12.20;99.90;;;;;;5034919;28;20463;-77
2021/05/26 06:33:24;;;;;;;3.13;2.87;;;;;;;;;;5034761;28;20485;-77
2021/05/26 06:35:51;;;;;;;2.97;2.77;;;12.40;99.90;;;;;;5035681;28;20442;-76
2021/05/26 06:38:17;;;;;;;6.37;5.33;;;12.40;99.90;;;;;;5033991;28;21014;-77
2021/05/26 06:40:44;;;;;;;3.00;2.63;;;12.40;99.90;;;;;;5033996;28;20482;-77
2021/05/26 06:43:10;;;;;;;2.53;2.33;;;12.40;99.90;;;;;;5034338;28;20446;-77
2021/05/26 06:45:36;;;;;;;3.37;3.07;;;12.50;99.90;;;;;;5034129;28;20454;-77
2021/05/26 06:48:03;;;;;;;3.40;2.27;;;12.50;99.90;;;;;;5033794;28;20576;-77
2021/05/26 06:50:29;;;;;;;3.23;2.50;;;12.60;99.90;;;;;;5033811;28;20466;-77
2021/05/26 06:52:55;;;;;;;2.57;2.37;;;12.70;99.90;;;;;;5034306;28;20533;-77
2021/05/26 06:55:22;;;;;;;2.83;2.60;;;12.70;99.90;;;;;;5033244;28;20442;-77
2021/05/26 06:57:48;;;;;;;4.10;3.50;;;13.00;99.90;;;;;;5035509;28;20572;-77
2021/05/26 07:00:14;;;;;;;3.33;3.03;;;13.10;99.90;;;;;;5035827;28;20490;-77
2021/05/26 07:02:41;;;;;;;3.23;2.93;;;13.10;99.90;;;;;;5034977;28;20529;-77
2021/05/26 07:05:09;;;;;;;3.03;2.80;;;12.80;99.90;;;;;;5035084;28;20429;-77
2021/05/26 07:07:35;;;;;;;4.33;3.17;;;12.80;99.90;;;;;;5034716;28;20482;-77
2021/05/26 07:10:01;;;;;;;4.57;3.00;;;12.80;99.90;;;;;;5034096;28;20988;-77
2021/05/26 07:12:27;;;;;;;4.57;3.00;;;12.80;99.90;;;;;;5034234;28;20548;-77
2021/05/26 07:14:53;;;;;;;11.00;3.80;;;12.90;99.90;;;;;;5034623;28;20474;-77
2021/05/26 07:17:19;;;;;;;3.40;2.73;;;12.90;99.90;;;;;;5037867;28;20930;-78
2021/05/26 07:19:45;;;;;;;2.67;2.00;;;12.90;99.90;;;;;;5039593;28;20466;-77
2021/05/26 07:22:13;;;;;;;3.83;2.77;;;12.80;99.90;;;;;;5034920;28;20518;-77
2021/05/26 07:24:39;;;;;;;3.13;2.57;;;13.00;99.90;;;;;;5033243;28;20449;-77
2021/05/26 07:27:05;;;;;;;2.43;2.20;;;12.90;99.90;;;;;;5033449;28;20535;-77
2021/05/26 07:29:31;;;;;;;2.53;2.20;;;12.80;99.90;;;;;;5032708;28;20456;-77
2021/05/26 07:31:58;;;;;;;4.00;2.67;;;12.90;99.90;;;;;;5033049;28;20537;-77
2021/05/26 07:34:25;;;;;;;3.43;2.77;;;12.80;99.90;;;;;;5033598;28;20450;-77
2021/05/26 07:36:52;;;;;;;3.60;3.13;;;13.00;99.90;;;;;;5033308;28;20871;-77
2021/05/26 07:39:19;;;;;;;3.73;3.43;;;12.80;99.90;;;;;;5032617;28;20482;-77
2021/05/26 07:41:46;;;;;;;4.03;2.60;;;13.00;99.90;;;;;;5033120;28;20452;-77
2021/05/26 07:44:12;;;;;;;4.03;2.37;;;13.00;99.90;;;;;;5032969;28;20478;-77
2021/05/26 07:46:38;;;;;;;7.00;3.53;;;;;;;;;;5033233;28;20502;-77
2021/05/26 07:49:05;;;;;;;5.73;3.20;;;12.80;99.90;;;;;;5033008;28;20506;-76
2021/05/26 07:51:33;;;;;;;5.77;2.80;;;13.10;99.90;;;;;;5033029;28;20505;-77
2021/05/26 07:54:01;;;;;;;3.60;3.10;;;13.00;99.90;;;;;;5033825;28;20443;-77
2021/05/26 07:56:28;;;;;;;2.70;2.50;;;13.20;99.90;;;;;;5033721;28;20890;-77
2021/05/26 07:58:54;;;;;;;2.70;2.10;;;13.40;99.90;;;;;;5032967;28;20457;-77
2021/05/26 08:01:20;;;;;;;2.47;2.27;;;13.40;99.90;;;;;;5032968;28;20481;-77
2021/05/26 08:03:46;;;;;;;4.03;3.13;;;13.50;99.90;;;;;;5035451;28;20515;-77
2021/05/26 08:06:13;;;;;;;7.23;4.10;;;13.70;99.90;;;;;;5037328;28;20491;-76
2021/05/26 08:08:39;;;;;;;5.03;3.57;;;13.80;99.90;;;;;;5039199;28;20446;-76
2021/05/26 08:11:05;;;;;;;3.10;2.17;;;13.80;99.90;;;;;;5037971;28;20839;-77
2021/05/26 08:13:32;;;;;;;9.20;3.00;;;13.80;99.90;;;;;;5039185;28;20516;-77
2021/05/26 08:15:59;;;;;;;7.13;3.10;;;13.70;99.90;;;;;;5038834;28;20478;-77
2021/05/26 08:18:25;;;;;;;3.30;3.00;;;13.70;99.90;;;;;;5037803;28;20447;-77
2021/05/26 08:20:51;;;;;;;5.33;2.53;;;13.70;99.90;;;;;;5037254;28;20551;-77
2021/05/26 08:23:18;;;;;;;4.30;2.73;;;13.50;99.90;;;;;;5036601;28;20438;-77
2021/05/26 08:25:44;;;;;;;3.63;2.60;;;13.60;99.90;;;;;;5036561;28;20450;-77
2021/05/26 08:28:10;;;;;;;2.73;2.40;;;13.80;99.90;;;;;;5036085;28;21015;-77
2021/05/26 08:30:37;;;;;;;2.77;2.40;;;13.70;99.90;;;;;;5036435;28;20473;-76
2021/05/26 08:33:03;;;;;;;3.50;2.40;;;13.70;99.90;;;;;;5036397;28;20520;-77
2021/05/26 08:35:29;;;;;;;3.00;2.40;;;13.60;99.90;;;;;;5036632;28;20446;-77
2021/05/26 08:37:55;;;;;;;4.23;2.30;;;13.60;99.90;;;;;;5037096;28;20493;-77
2021/05/26 08:40:21;;;;;;;3.07;2.30;;;13.50;99.90;;;;;;5035946;28;20570;-77
2021/05/26 08:42:48;;;;;;;5.80;2.67;;;13.60;99.90;;;;;;5036333;28;20474;-77
2021/05/26 08:45:15;;;;;;;3.40;2.80;;;13.60;99.90;;;;;;5036191;28;20474;-77
2021/05/26 08:47:45;;;;;;;6.77;3.90;;;13.60;99.90;;;;;;5036650;28;20499;-76
2021/05/26 08:50:13;;;;;;;4.90;3.30;;;13.60;99.90;;;;;;5037536;28;20810;-77
2021/05/26 08:52:40;;;;;;;2.50;2.20;;;13.60;99.90;;;;;;5037258;28;20576;-77
2021/05/26 08:55:07;;;;;;;5.97;2.67;;;13.50;99.90;;;;;;5038508;28;20873;-77
2021/05/26 08:57:34;;;;;;;3.67;3.10;;;13.50;99.90;;;;;;5036641;28;20933;-76
2021/05/26 09:00:00;;;;;;;3.70;3.37;;;13.50;99.90;;;;;;5035801;28;20516;-77
2021/05/26 09:02:26;;;;;;;4.40;2.33;;;13.60;99.90;;;;;;5035671;28;20443;-78
2021/05/26 09:04:53;;;;;;;2.73;1.97;;;13.50;99.90;;;;;;5036954;28;20858;-77
2021/05/26 09:07:22;;;;;;;2.93;2.63;;;13.70;99.90;;;;;;5037207;28;20497;-78
2021/05/26 09:09:52;;;;;;;4.73;2.93;;;13.70;99.90;;;;;;5037311;28;20465;-77
2021/05/26 09:12:28;;;;;;;3.00;2.77;;;13.80;99.90;;;;;;5046953;28;20471;-77
2021/05/26 09:14:55;;;;;;;2.07;1.97;;;14.10;99.90;;;;;;5042837;28;20506;-77
2021/05/26 09:17:22;;;;;;;4.50;2.60;;;14.30;99.90;;;;;;5041548;28;20458;-77
2021/05/26 09:19:48;;;;;;;5.63;2.47;;;14.40;99.90;;;;;;5043978;28;20473;-77
2021/05/26 09:22:18;;;;;;;2.97;2.67;;;14.60;99.90;;;;;;5045696;28;20439;-77
2021/05/26 09:24:44;;;;;;;3.10;2.10;;;14.70;99.90;;;;;;5037408;28;20761;-76
2021/05/26 09:27:11;;;;;;;4.50;2.57;;;14.60;99.90;;;;;;5036283;28;20481;-76
2021/05/26 09:29:40;;;;;;;2.90;2.10;;;14.50;99.90;;;;;;5037160;28;20557;-77
2021/05/26 09:32:11;;;;;;;2.20;2.00;;;14.40;99.90;;;;;;5035589;28;20577;-77
2021/05/26 09:34:39;;;;;;;5.30;2.80;;;14.40;99.90;;;;;;5035444;28;20454;-77
2021/05/26 09:37:06;;;;;;;4.30;2.30;;;14.20;99.90;;;;;;5035519;28;20446;-77
2021/05/26 09:42:02;;;;;;;2.00;1.90;;;14.20;99.90;;;;;;5050886;28;20569;-81
2021/05/26 09:44:29;;;;;;;5.13;2.93;;;14.20;99.90;;;;;;5050836;28;20454;-81
2021/05/26 09:46:55;;;;;;;4.00;1.87;;;14.20;99.90;;;;;;5042867;28;20446;-81
2021/05/26 09:49:26;;;;;;;2.17;1.97;;;14.10;99.90;;;;;;5042809;28;20450;-80
2021/05/26 09:51:55;;;;;;;2.63;2.10;;;14.20;99.90;;;;;;5022748;28;20483;-80
2021/05/26 09:54:22;;;;;;;3.43;2.10;;;14.10;99.90;;;;;;5025080;28;20455;-80
2021/05/26 09:56:50;;;;;;;2.50;1.60;;;14.30;99.90;;;;;;5023032;28;20542;-80
2021/05/26 09:59:18;;;;;;;5.10;1.90;;;14.30;99.90;;;;;;5021543;28;20451;-80
2021/05/26 10:01:44;;;;;;;4.93;2.60;;;14.30;99.90;;;;;;5021392;28;20503;-80
2021/05/26 10:04:10;;;;;;;5.40;2.10;;;14.80;99.90;;;;;;5021561;28;20458;-79
2021/05/26 10:06:39;;;;;;;8.37;4.57;;;14.50;99.90;;;;;;5022977;28;20450;-80
2021/05/26 10:09:09;;;;;;;7.30;3.90;;;14.60;99.90;;;;;;5023338;28;20510;-80
2021/05/26 10:11:35;;;;;;;4.33;3.60;;;14.50;99.90;;;;;;5021736;28;20842;-80
2021/05/26 10:14:05;;;;;;;5.07;3.13;;;14.50;99.90;;;;;;5024197;28;20953;-80
2021/05/26 10:16:37;;;;;;;3.47;2.03;;;14.50;99.90;;;;;;5022478;28;20467;-79
2021/05/26 10:19:05;;;;;;;5.00;3.37;;;14.40;99.90;;;;;;5022826;28;20486;-81
2021/05/26 10:21:32;;;;;;;3.37;2.30;;;14.20;99.90;;;;;;5024453;28;20463;-80
2021/05/26 10:23:59;;;;;;;3.63;1.70;;;13.70;99.90;;;;;;5023806;28;20447;-81
2021/05/26 10:26:59;;;;;;;2.00;1.80;;;14.40;99.90;;;;;;5021959;28;20439;-80
2021/05/26 10:29:57;;;;;;;3.57;2.33;;;13.70;99.90;;;;;;5024386;28;20954;-81
2021/05/26 10:32:28;;;;;;;3.03;2.30;;;14.30;99.90;;;;;;5021742;28;20517;-82
2021/05/26 10:35:13;;;;;;;5.00;3.20;;;14.30;99.90;;;;;;5021723;28;20431;-81
2021/05/26 10:37:41;;;;;;;10.47;5.60;;;14.00;99.90;;;;;;5023406;28;20481;-81
2021/05/26 10:40:35;;;;;;;8.43;3.77;;;13.60;99.90;;;;;;5021036;28;20621;-82
2021/05/26 10:43:27;;;;;;;4.27;3.53;;;13.20;99.90;;;;;;5019785;28;20792;-82
2021/05/26 10:45:55;;;;;;;9.10;4.33;;;13.10;99.90;;;;;;5023430;28;20443;-78
2021/05/26 10:49:01;;;;;;;4.33;3.77;;;13.00;99.90;;;;;;5026630;28;20478;-81
2021/05/26 10:51:57;;;;;;;7.43;4.57;;;12.90;99.90;;;;;;5022816;28;20482;-80
2021/05/26 10:54:53;;;;;;;5.43;3.23;;;13.00;99.90;;;;;;5023688;28;20428;-81
2021/05/26 10:57:20;;;;;;;9.03;4.33;;;13.30;99.90;;;;;;5011362;28;20447;-79
2021/05/26 11:00:25;;;;;;;6.10;3.97;;;13.70;99.90;;;;;;5026604;28;20467;-81
2021/05/26 11:03:30;;;;;;;4.73;3.40;;;14.10;99.90;;;;;;5020610;28;21056;-81
2021/05/26 11:05:58;;;;;;;2.73;2.20;;;14.30;99.90;;;;;;5020536;28;20415;-82
2021/05/26 11:08:43;;;;;;;4.97;2.97;;;14.30;99.90;;;;;;5022614;28;20446;-81
2021/05/26 11:11:52;;;;;;;5.20;2.57;;;14.30;99.90;;;;;;5020601;28;20452;-83
2021/05/26 11:14:34;;;;;;;2.80;2.27;;;14.20;99.90;;;;;;5019393;28;20431;-81
2021/05/26 11:17:36;;;;;;;2.60;2.40;;;14.30;99.90;;;;;;5018720;28;20966;-81
2021/05/26 11:20:20;;;;;;;1.90;1.80;;;14.50;99.90;;;;;;5017550;28;20471;-80
2021/05/26 11:22:47;;;;;;;6.60;5.13;;;14.70;99.90;;;;;;5017689;28;20514;-82
2021/05/26 11:25:15;;;;;;;4.73;2.40;;;15.10;99.90;;;;;;5017684;28;20431;-80
2021/05/26 11:27:55;;;;;;;2.90;2.00;;;15.30;99.90;;;;;;5017069;28;20446;-80
2021/05/26 11:30:25;;;;;;;8.90;2.07;;;15.40;99.90;;;;;;5017005;28;20517;-80
2021/05/26 11:32:51;;;;;;;3.43;1.50;;;15.50;99.90;;;;;;5021239;28;20823;-82
2021/05/26 11:35:17;;;;;;;3.03;1.53;;;15.40;99.90;;;;;;5018736;28;20443;-82
2021/05/26 11:37:44;;;;;;;1.50;1.40;;;15.50;99.90;;;;;;5018477;28;20501;-79
2021/05/26 11:40:28;;;;;;;4.03;1.80;;;15.50;99.90;;;;;;5017397;28;20488;-82
2021/05/26 11:42:56;;;;;;;1.73;1.47;;;15.50;99.90;;;;;;5018306;28;20440;-81
2021/05/26 11:45:24;;;;;;;2.50;1.53;;;15.60;99.90;;;;;;5017779;28;20479;-80
2021/05/26 11:47:51;;;;;;;1.00;0.90;;;15.70;99.90;;;;;;5020955;28;20451;-81
2021/05/26 11:50:29;;;;;;;1.30;1.20;;;15.70;99.90;;;;;;5023376;28;20478;-80
2021/05/26 11:53:16;;;;;;;2.10;1.97;;;15.80;99.90;;;;;;5024445;28;20490;-82
2021/05/26 11:55:58;;;;;;;1.47;1.37;;;15.80;99.90;;;;;;5031535;28;20415;-80
2021/05/26 11:58:33;;;;;;;0.90;0.90;;;15.90;99.90;;;;;;5027245;28;20432;-80
2021/05/26 12:01:01;;;;;;;1.33;1.07;;;15.80;99.90;;;;;;5024043;28;20466;-80
2021/05/26 12:03:30;;;;;;;2.97;1.20;;;15.80;99.90;;;;;;5023057;28;20440;-80
2021/05/26 12:05:57;;;;;;;8.20;1.60;;;15.90;99.90;;;;;;5018939;28;20501;-81
2021/05/26 12:08:25;;;;;;;2.20;1.00;;;15.80;99.90;;;;;;5021951;28;20807;-83
2021/05/26 12:10:53;;;;;;;2.13;1.50;;;16.00;99.90;;;;;;5022850;28;20471;-83
2021/05/26 12:13:20;;;;;;;1.70;1.40;;;15.90;99.90;;;;;;5020384;28;20490;-82
2021/05/26 12:15:47;;;;;;;0.90;0.80;;;15.90;99.90;;;;;;5018823;28;20869;-82
2021/05/26 12:18:13;;;;;;;2.20;1.73;;;15.90;99.90;;;;;;5021020;28;20957;-81
2021/05/26 12:20:44;;;;;;;1.10;1.00;;;16.00;99.90;;;;;;5031441;28;20471;-80
2021/05/26 12:23:11;;;;;;;3.23;0.97;;;16.20;99.90;;;;;;5026994;28;20450;-82
2021/05/26 12:25:39;;;;;;;1.13;1.03;;;16.40;99.90;;;;;;5021797;28;20447;-81
2021/05/26 12:28:17;;;;;;;2.00;1.60;;;16.40;99.90;;;;;;5020934;28;20447;-82
2021/05/26 12:30:44;;;;;;;1.17;1.07;;;16.30;99.90;;;;;;5018454;28;20471;-80
2021/05/26 12:33:18;;;;;;;1.40;1.30;;;16.20;99.90;;;;;;5019373;28;20478;-80
2021/05/26 12:35:58;;;;;;;2.60;1.90;;;16.10;99.90;;;;;;5023764;28;20461;-81
2021/05/26 12:38:24;;;;;;;2.27;1.90;;;16.20;99.90;;;;;;5024169;28;20432;-80
2021/05/26 12:40:50;;;;;;;1.40;1.30;;;16.30;99.90;;;;;;5019368;28;20505;-81
2021/05/26 12:43:26;;;;;;;1.90;1.20;;;16.30;99.90;;;;;;5020408;28;20447;-79
2021/05/26 12:45:53;;;;;;;8.40;2.93;;;15.80;99.90;;;;;;5024361;28;20447;-79
2021/05/26 12:48:19;;;;;;;2.50;2.30;;;16.10;99.90;;;;;;5025369;28;20454;-79
2021/05/26 12:50:46;;;;;;;7.70;1.60;;;16.10;99.90;;;;;;5024335;28;20477;-80
2021/05/26 12:53:14;;;;;;;2.13;1.80;;;16.00;99.90;;;;;;5022006;28;20491;-81
2021/05/26 12:55:40;;;;;;;1.83;1.27;;;16.00;99.90;;;;;;5019395;28;20443;-84
2021/05/26 12:58:09;;;;;;;2.00;1.80;;;16.10;99.90;;;;;;5023113;28;20439;-84
2021/05/26 13:00:36;;;;;;;3.17;1.53;;;16.30;99.90;;;;;;5024337;28;20481;-83